Time;durP1;ratioP1;P1;durP2;ratioP2;P2;SDS_P1;SDS_P2;PMS_P1;PMS_P2;Temp;Humidity;BMP_temperature;BMP_pressure;BME280_temperature;BME280_humidity;BME280_pressure;Samples;Min_cycle;Max_cycle;Signal;HPM_P1;HPM_P2
2022/05/10 00:00:03;;;;;;;3.13;2.83;;;;;;;11.24;69.94;97659.88;5102197;28;20223;-86
2022/05/10 00:02:50;;;;;;;3.40;2.70;;;;;;;11.60;69.11;97656.75;5098903;28;20584;-86
2022/05/10 00:05:28;;;;;;;4.03;2.80;;;;;;;11.56;68.22;97637.84;5105023;28;20196;-86
2022/05/10 00:07:55;;;;;;;3.97;3.30;;;;;;;11.04;67.94;97548.34;5099160;28;20191;-85
2022/05/10 00:10:23;;;;;;;4.47;3.00;;;;;;;10.98;70.50;97605.59;5099077;28;20202;-88
2022/05/10 00:12:51;;;;;;;4.53;3.10;;;;;;;11.33;70.33;97654.31;5099444;28;20189;-86
2022/05/10 00:15:20;;;;;;;6.23;3.10;;;;;;;11.56;69.49;97645.63;5104785;28;20184;-86
2022/05/10 00:17:50;;;;;;;6.07;3.47;;;;;;;11.59;69.23;97617.00;5102630;28;20680;-87
2022/05/10 00:20:25;;;;;;;3.77;3.33;;;;;;;11.83;68.52;97643.72;5113108;28;20235;-87
2022/05/10 00:22:53;;;;;;;5.33;3.50;;;;;;;11.65;69.05;97611.53;5103505;28;20184;-87
2022/05/10 00:25:26;;;;;;;4.43;3.27;;;;;;;11.97;68.53;97649.19;5119862;28;20188;-91
2022/05/10 00:27:55;;;;;;;5.07;3.70;;;;;;;12.13;67.86;97643.28;5097260;28;20200;-88
2022/05/10 00:30:22;;;;;;;6.53;3.60;;;;;;;12.14;67.50;97631.13;5114421;28;20192;-87
2022/05/10 00:32:50;;;;;;;4.27;3.43;;;;;;;12.14;67.18;97612.97;5115809;28;20189;-87
2022/05/10 00:35:28;;;;;;;8.40;4.97;;;;;;;11.99;67.56;97608.44;5115848;28;20265;-87
2022/05/10 00:38:00;;;;;;;5.37;3.73;;;;;;;11.46;68.26;97595.03;5081530;28;20205;-90
2022/05/10 00:40:31;;;;;;;4.67;4.03;;;;;;;11.55;69.34;97636.19;5114957;28;20257;-87
2022/05/10 00:43:04;;;;;;;6.23;4.57;;;;;;;11.27;69.87;97638.19;5114530;28;20188;-88
2022/05/10 00:45:47;;;;;;;4.33;3.53;;;;;;;11.03;70.86;97634.75;5116010;28;20220;-88
2022/05/10 00:48:42;;;;;;;3.80;3.50;;;;;;;10.88;71.07;97631.91;5114504;28;20197;-87
2022/05/10 00:51:24;;;;;;;5.63;3.70;;;;;;;10.55;71.86;97600.34;5097421;28;20244;-88
2022/05/10 00:54:24;;;;;;;4.97;3.70;;;;;;;10.78;72.00;97628.81;5096665;28;20628;-89
2022/05/10 00:57:09;;;;;;;3.93;3.50;;;;;;;10.92;71.16;97629.13;5110926;28;20610;-86
2022/05/10 01:00:07;;;;;;;3.97;3.17;;;;;;;10.94;71.26;97629.91;5115227;28;20225;-90
2022/05/10 01:03:00;;;;;;;4.97;3.43;;;;;;;10.19;71.71;97524.84;5077663;28;20198;-88
2022/05/10 01:05:31;;;;;;;6.17;3.37;;;;;;;10.64;72.25;97620.72;5122189;28;20236;-91
2022/05/10 01:08:15;;;;;;;4.97;4.00;;;;;;;10.23;73.56;97596.31;5097703;28;20195;-89
2022/05/10 01:11:10;;;;;;;6.93;3.93;;;;;;;10.09;74.94;97616.63;5114032;28;20191;-87
2022/05/10 01:13:44;;;;;;;4.70;3.73;;;;;;;9.94;76.33;97621.47;5097018;28;20195;-85
2022/05/10 01:16:18;;;;;;;4.73;3.70;;;;;;;9.99;75.74;97625.59;5115020;28;20186;-88
2022/05/10 01:18:47;;;;;;;4.40;3.60;;;;;;;9.70;76.42;97577.44;5114076;28;20191;-87
2022/05/10 01:21:28;;;;;;;5.17;3.90;;;;;;;10.21;75.62;97617.97;5080008;28;20238;-86
2022/05/10 01:24:01;;;;;;;4.57;3.77;;;;;;;10.43;74.26;97624.06;5095729;28;20674;-86
2022/05/10 01:26:51;;;;;;;4.93;3.50;;;;;;;10.67;72.63;97617.16;5112154;28;20192;-89
2022/05/10 01:29:34;;;;;;;4.93;3.40;;;;;;;10.75;72.53;97609.94;5112024;28;20672;-88
2022/05/10 01:34:56;;;;;;;7.07;3.23;;;;;;;10.95;70.76;97615.22;5093698;28;20278;-88
2022/05/10 01:37:32;;;;;;;5.63;3.33;;;;;;;10.92;70.64;97615.34;5110135;28;20263;-87
2022/05/10 01:40:24;;;;;;;6.10;3.13;;;;;;;10.67;72.02;97606.81;5093322;28;20219;-87
2022/05/10 01:43:02;;;;;;;5.60;3.30;;;;;;;10.45;72.67;97594.63;5094178;28;20583;-89
2022/05/10 01:45:38;;;;;;;4.60;3.10;;;;;;;10.37;72.85;97601.84;5124242;28;20194;-88
2022/05/10 01:48:10;;;;;;;5.47;3.63;;;;;;;10.19;73.09;97596.47;5121131;28;20667;-89
2022/05/10 01:50:45;;;;;;;7.37;3.30;;;;;;;9.94;74.30;97601.63;5110105;28;20240;-85
2022/05/10 01:53:15;;;;;;;5.10;4.07;;;;;;;9.80;74.70;97594.34;5128856;28;20235;-88
2022/05/10 01:55:46;;;;;;;4.77;4.00;;;;;;;9.81;75.54;97597.75;5102583;28;20196;-91
2022/05/10 01:58:29;;;;;;;4.40;4.00;;;;;;;9.52;77.17;97572.88;5115590;28;20267;-88
2022/05/10 02:00:59;;;;;;;7.77;4.37;;;;;;;9.62;77.31;97597.53;5095024;28;20223;-91
2022/05/10 02:03:37;;;;;;;6.87;4.30;;;;;;;9.76;77.09;97602.25;5120776;28;20184;-90
2022/05/10 02:06:16;;;;;;;6.70;4.77;;;;;;;9.80;76.95;97603.84;5097549;28;20187;-88
2022/05/10 02:09:16;;;;;;;5.50;4.97;;;;;;;9.79;76.78;97605.56;5111801;28;20199;-92
2022/05/10 02:11:54;;;;;;;8.30;5.00;;;;;;;9.57;76.98;97575.31;5091622;28;20203;-91
2022/05/10 02:14:56;;;;;;;7.83;4.90;;;;;;;9.71;77.44;97601.53;5112732;28;20187;-91
2022/05/10 02:17:49;;;;;;;6.70;4.70;;;;;;;9.74;77.21;97596.28;5123487;28;20196;-87
2022/05/10 02:20:23;;;;;;;7.07;4.93;;;;;;;9.81;77.24;97596.03;5114080;27;20291;-87
2022/05/10 02:23:38;;;;;;;6.13;5.37;;;;;;;9.63;77.29;97596.63;5112512;28;20584;-85
2022/05/10 02:26:12;;;;;;;6.40;4.73;;;;;;;9.54;76.83;97563.31;5104680;28;20176;-86
2022/05/10 02:29:03;;;;;;;6.63;5.07;;;;;;;9.44;77.75;97579.19;5116252;28;20183;-87
2022/05/10 02:34:37;;;;;;;6.83;5.43;;;;;;;9.48;77.95;97599.72;5109897;28;20211;-85
2022/05/10 02:37:04;;;;;;;6.37;5.20;;;;;;;9.39;77.49;97597.44;5109189;28;20188;-87
2022/05/10 02:39:35;;;;;;;7.47;5.37;;;;;;;9.31;77.60;97602.03;5091471;28;20219;-87
2022/05/10 02:42:03;;;;;;;7.50;5.60;;;;;;;9.20;77.72;97579.97;5090556;28;20265;-88
2022/05/10 02:44:37;;;;;;;5.50;5.00;;;;;;;8.71;78.09;97496.28;5110603;28;20930;-89
2022/05/10 02:47:06;;;;;;;7.50;4.73;;;;;;;9.28;77.89;97602.09;5091244;28;20743;-86
2022/05/10 02:49:36;;;;;;;7.80;5.33;;;;;;;9.08;79.46;97580.38;5110684;28;20229;-88
2022/05/10 02:52:04;;;;;;;7.97;5.40;;;;;;;8.95;79.76;97588.50;5092374;28;20622;-89
2022/05/10 02:54:31;;;;;;;8.33;4.57;;;;;;;8.98;80.29;97596.13;5092093;28;20184;-89
2022/05/10 02:57:03;;;;;;;6.97;4.67;;;;;;;9.07;79.81;97591.59;5110249;28;20188;-90
2022/05/10 02:59:36;;;;;;;6.93;4.77;;;;;;;9.01;80.28;97562.47;5109310;28;20202;-89
2022/05/10 03:02:20;;;;;;;6.63;4.93;;;;;;;9.08;80.02;97577.78;5111223;28;20184;-86
2022/05/10 03:04:56;;;;;;;6.37;4.93;;;;;;;9.15;79.41;97593.03;5116111;28;20184;-87
2022/05/10 03:07:29;;;;;;;6.70;4.90;;;;;;;9.12;79.37;97569.91;5111184;28;20680;-86
2022/05/10 03:09:56;;;;;;;10.27;5.17;;;;;;;8.94;79.08;97557.56;5111130;28;20244;-90
2022/05/10 03:12:24;;;;;;;9.60;4.53;;;;;;;9.09;78.16;97564.81;5091991;28;20188;-92
2022/05/10 03:14:57;;;;;;;5.53;3.80;;;;;;;9.03;79.30;97578.78;5113861;28;20238;-87
2022/05/10 03:17:25;;;;;;;6.10;3.93;;;;;;;9.01;78.52;97583.13;5090035;28;20180;-86
2022/05/10 03:19:55;;;;;;;5.67;4.90;;;;;;;9.05;79.44;97593.41;5109931;28;20223;-88
2022/05/10 03:22:23;;;;;;;9.50;5.37;;;;;;;8.87;79.53;97563.78;5109261;28;20188;-89
2022/05/10 03:24:50;;;;;;;5.27;4.73;;;;;;;9.19;78.87;97568.78;5109443;28;20184;-87
2022/05/10 03:27:18;;;;;;;9.43;5.20;;;;;;;9.24;78.33;97550.56;5110513;28;20192;-88
2022/05/10 03:29:46;;;;;;;6.27;5.07;;;;;;;9.70;76.72;97576.59;5108985;28;20675;-85
2022/05/10 03:32:16;;;;;;;6.93;5.17;;;;;;;9.94;76.26;97580.06;5092201;28;20726;-87
2022/05/10 03:34:54;;;;;;;5.93;4.90;;;;;;;9.87;75.78;97573.44;5108025;28;20188;-87
2022/05/10 03:37:24;;;;;;;5.63;4.87;;;;;;;9.98;75.82;97586.81;5106941;28;20619;-87
2022/05/10 03:39:51;;;;;;;6.50;4.97;;;;;;;9.96;74.96;97580.88;5108344;28;20283;-92
2022/05/10 03:42:21;;;;;;;8.27;5.03;;;;;;;9.97;75.21;97595.50;5109148;28;20219;-87
2022/05/10 03:44:53;;;;;;;6.23;4.80;;;;;;;9.82;75.36;97574.44;5091670;28;20183;-87
2022/05/10 03:47:22;;;;;;;5.53;5.03;;;;;;;9.81;74.87;97577.91;5108036;28;20187;-87
2022/05/10 03:49:50;;;;;;;6.27;4.97;;;;;;;10.05;73.94;97586.59;5110076;28;20256;-87
2022/05/10 03:52:17;;;;;;;5.90;4.47;;;;;;;10.20;73.98;97603.34;5108308;28;20220;-87
2022/05/10 03:54:47;;;;;;;6.17;4.17;;;;;;;10.31;73.13;97578.75;5109796;28;20187;-88
2022/05/10 03:57:14;;;;;;;4.63;4.13;;;;;;;10.75;72.68;97591.81;5111498;28;20199;-89
2022/05/10 03:59:42;;;;;;;8.00;4.17;;;;;;;10.69;70.69;97561.81;5116329;28;20180;-89
2022/05/10 04:02:10;;;;;;;5.70;4.27;;;;;;;11.09;69.24;97576.66;5093828;28;20233;-85
2022/05/10 04:04:42;;;;;;;11.13;4.73;;;;;;;11.51;68.58;97589.66;5094558;28;20192;-87
2022/05/10 04:07:09;;;;;;;8.17;4.67;;;;;;;11.63;66.58;97578.78;5109967;28;20189;-88
2022/05/10 04:09:37;;;;;;;6.90;4.37;;;;;;;11.95;66.05;97591.31;5107634;28;20755;-85
2022/05/10 04:12:04;;;;;;;4.77;4.27;;;;;;;11.21;66.90;97586.56;5091930;28;20190;-87
2022/05/10 04:14:32;;;;;;;8.13;4.40;;;;;;;11.41;67.53;97602.16;5111119;28;20194;-87
2022/05/10 04:17:00;;;;;;;8.00;3.50;;;;;;;11.50;67.63;97581.03;5115638;28;20203;-92
2022/05/10 04:19:28;;;;;;;9.70;5.03;;;;;;;11.82;66.42;97600.50;5110945;28;20683;-92
2022/05/10 04:21:56;;;;;;;9.37;4.00;;;;;;;12.05;66.30;97605.59;5089113;28;20293;-91
2022/05/10 04:24:23;;;;;;;4.90;3.73;;;;;;;12.21;65.06;97559.88;5097991;28;20197;-86
2022/05/10 04:26:51;;;;;;;4.73;3.13;;;;;;;12.36;65.54;97598.16;5117942;28;20204;-86
2022/05/10 04:29:20;;;;;;;7.43;3.43;;;;;;;12.23;66.29;97565.84;5087358;28;20203;-86
2022/05/10 04:31:47;;;;;;;6.67;3.83;;;;;;;12.19;66.22;97523.59;5119668;28;20195;-85
2022/05/10 04:34:14;;;;;;;6.40;3.97;;;;;;;12.45;66.28;97597.72;5119650;28;20186;-87
2022/05/10 04:36:41;;;;;;;6.73;3.83;;;;;;;11.93;67.06;97568.00;5115288;28;20944;-91
2022/05/10 04:39:08;;;;;;;3.73;3.33;;;;;;;12.21;66.74;97578.91;5078488;28;20188;-88
2022/05/10 04:41:42;;;;;;;7.03;4.10;;;;;;;12.46;65.82;97591.66;5062132;28;20687;-92
2022/05/10 04:44:12;;;;;;;8.20;5.00;;;;;;;12.69;65.00;97596.66;5113826;28;20668;-91
2022/05/10 04:46:41;;;;;;;7.87;4.23;;;;;;;12.64;65.02;97580.41;5096465;28;20216;-90
2022/05/10 04:49:12;;;;;;;6.70;3.73;;;;;;;12.99;64.31;97571.84;5111808;28;20199;-89
2022/05/10 04:51:39;;;;;;;6.53;4.97;;;;;;;13.30;63.70;97605.09;5115152;28;20197;-85
2022/05/10 04:54:08;;;;;;;7.77;5.07;;;;;;;13.56;62.39;97586.44;5090068;28;20197;-90
2022/05/10 04:56:36;;;;;;;7.10;4.70;;;;;;;13.27;63.47;97617.41;5092052;28;20190;-86
2022/05/10 04:59:03;;;;;;;6.83;5.40;;;;;;;12.65;64.68;97537.91;5110445;28;20215;-91
2022/05/10 05:01:32;;;;;;;7.53;5.20;;;;;;;13.13;64.38;97599.00;5094954;28;20268;-86
2022/05/10 05:04:02;;;;;;;14.73;6.20;;;;;;;13.27;64.71;97612.19;5123673;28;20263;-88
2022/05/10 05:06:30;;;;;;;11.23;6.23;;;;;;;13.55;62.51;97589.13;5118006;28;20180;-86
2022/05/10 05:08:57;;;;;;;7.03;5.70;;;;;;;13.83;62.28;97584.25;5108240;28;20213;-86
2022/05/10 05:11:27;;;;;;;8.60;5.50;;;;;;;13.58;63.14;97596.81;5124904;28;20201;-91
2022/05/10 05:13:54;;;;;;;6.27;5.57;;;;;;;13.23;65.08;97592.44;5120225;28;20279;-89
2022/05/10 05:16:22;;;;;;;11.47;5.57;;;;;;;13.81;63.64;97614.72;5080157;28;20203;-86
2022/05/10 05:18:49;;;;;;;5.23;4.47;;;;;;;14.16;62.21;97595.56;5099139;28;20256;-86
2022/05/10 05:21:19;;;;;;;8.30;4.87;;;;;;;14.47;60.68;97580.06;5096308;28;20772;-88
2022/05/10 05:23:47;;;;;;;6.77;4.13;;;;;;;14.32;60.88;97562.63;5098293;28;20199;-88
2022/05/10 05:26:14;;;;;;;6.00;4.23;;;;;;;14.14;61.80;97609.59;5112730;28;20192;-88
2022/05/10 05:28:41;;;;;;;7.40;4.13;;;;;;;14.20;61.99;97571.03;5114172;28;20195;-87
2022/05/10 05:31:11;;;;;;;7.03;4.10;;;;;;;14.46;61.13;97533.25;5099364;28;20287;-90
2022/05/10 05:33:49;;;;;;;8.27;3.77;;;;;;;14.85;60.48;97558.94;5093741;28;20255;-86
2022/05/10 05:36:16;;;;;;;4.47;3.57;;;;;;;15.03;60.13;97597.03;5099859;28;20275;-86
2022/05/10 05:38:44;;;;;;;5.23;3.50;;;;;;;14.99;60.77;97585.09;5107533;28;20188;-89
2022/05/10 05:41:15;;;;;;;6.47;3.50;;;;;;;15.01;60.53;97573.66;5102329;28;20220;-87
2022/05/10 05:43:46;;;;;;;5.63;3.23;;;;;;;15.41;60.28;97574.91;5119886;28;20191;-86
2022/05/10 05:46:14;;;;;;;7.70;3.90;;;;;;;15.23;59.99;97553.28;5114455;28;20572;-92
2022/05/10 05:48:42;;;;;;;12.23;4.87;;;;;;;15.61;60.17;97584.25;5117713;28;20623;-87
2022/05/10 05:51:09;;;;;;;14.30;6.17;;;;;;;15.41;58.63;97569.69;5117787;28;20188;-87
2022/05/10 05:53:39;;;;;;;11.50;6.40;;;;;;;15.57;58.47;97559.22;5115111;28;20254;-90
2022/05/10 05:56:10;;;;;;;7.77;5.77;;;;;;;15.52;59.05;97572.53;5111758;28;20186;-89
2022/05/10 05:58:39;;;;;;;6.10;5.07;;;;;;;15.68;59.19;97570.75;5112464;28;20184;-89
2022/05/10 06:01:16;;;;;;;6.90;5.00;;;;;;;15.89;58.60;97577.34;5099769;28;20220;-86
2022/05/10 06:03:44;;;;;;;6.27;4.77;;;;;;;15.81;58.62;97591.75;5098910;28;20188;-86
2022/05/10 06:06:13;;;;;;;7.23;3.70;;;;;;;15.83;58.71;97598.59;5079650;28;20306;-90
2022/05/10 06:08:44;;;;;;;6.63;3.97;;;;;;;16.30;57.92;97596.63;5103155;28;20201;-89
2022/05/10 06:11:13;;;;;;;4.37;3.57;;;;;;;16.03;57.25;97592.22;5102720;28;20246;-90
2022/05/10 06:13:40;;;;;;;10.27;4.47;;;;;;;16.46;57.12;97600.97;5097772;28;20188;-86
2022/05/10 06:16:08;;;;;;;6.47;3.90;;;;;;;16.22;55.95;97556.22;5120013;28;20195;-88
2022/05/10 06:18:35;;;;;;;6.53;4.50;;;;;;;16.18;55.47;97554.72;5116079;28;20200;-87
2022/05/10 06:21:05;;;;;;;8.80;5.63;;;;;;;16.61;55.71;97600.91;5097427;28;20248;-85
2022/05/10 06:23:33;;;;;;;7.50;5.73;;;;;;;16.64;53.84;97568.50;5115948;28;20195;-91
2022/05/10 06:26:02;;;;;;;9.47;6.50;;;;;;;17.00;53.22;97606.28;5113654;28;20194;-89
2022/05/10 06:28:31;;;;;;;9.20;5.23;;;;;;;17.18;52.98;97601.69;5112935;28;20261;-86
2022/05/10 06:30:58;;;;;;;9.13;6.27;;;;;;;17.34;51.81;97589.31;5096962;28;20208;-87
2022/05/10 06:33:29;;;;;;;8.83;5.40;;;;;;;17.56;51.17;97579.16;5102598;28;20197;-87
2022/05/10 06:36:00;;;;;;;7.60;4.20;;;;;;;17.63;50.72;97576.97;5107694;28;20208;-90
2022/05/10 06:38:34;;;;;;;7.27;3.30;;;;;;;17.75;50.56;97581.41;5107233;28;20271;-86
2022/05/10 06:41:04;;;;;;;7.23;2.87;;;;;;;18.08;49.04;97599.31;5122492;28;20748;-86
2022/05/10 06:43:37;;;;;;;4.97;3.37;;;;;;;18.36;48.32;97596.53;5123806;28;20596;-85
2022/05/10 06:46:15;;;;;;;4.73;2.60;;;;;;;18.46;47.56;97576.63;5104956;28;20250;-86
2022/05/10 06:48:46;;;;;;;6.23;3.63;;;;;;;18.64;48.00;97591.94;5116154;28;20197;-88
2022/05/10 06:51:17;;;;;;;6.23;3.00;;;;;;;18.63;46.67;97569.25;5113790;28;20225;-86
2022/05/10 06:53:54;;;;;;;7.63;3.70;;;;;;;18.74;46.52;97572.91;5113310;28;20186;-86
2022/05/10 06:56:23;;;;;;;6.13;3.67;;;;;;;18.73;46.43;97594.88;5108160;28;20203;-89
2022/05/10 06:58:52;;;;;;;6.27;3.03;;;;;;;18.85;46.76;97581.75;5114655;28;20199;-90
2022/05/10 07:01:28;;;;;;;6.20;3.50;;;;;;;19.10;46.10;97586.91;5089321;28;20309;-87
2022/05/10 07:04:02;;;;;;;7.07;3.70;;;;;;;19.13;46.36;97591.97;5096077;28;20207;-89
2022/05/10 07:07:09;;;;;;;4.93;2.63;;;;;;;19.18;46.11;97597.72;5117120;28;20191;-89
2022/05/10 07:10:34;;;;;;;7.53;3.70;;;;;;;19.45;46.64;97594.94;5115339;28;20199;-87
2022/05/10 07:13:54;;;;;;;6.10;2.80;;;;;;;19.54;46.40;97575.88;5094875;28;20203;-88
2022/05/10 07:17:20;;;;;;;6.97;3.17;;;;;;;19.74;44.75;97577.88;5108756;28;20746;-86
2022/05/10 07:20:41;;;;;;;4.23;2.40;;;;;;;20.10;43.72;97595.34;5095050;28;20261;-87
2022/05/10 07:24:06;;;;;;;11.43;5.07;;;;;;;19.80;42.26;97597.63;5080903;28;20267;-88
2022/05/10 07:27:29;;;;;;;3.67;3.10;;;;;;;19.75;40.32;97599.75;5113136;28;20219;-88
2022/05/10 07:30:49;;;;;;;7.20;3.63;;;;;;;19.99;39.00;97598.75;5109961;28;20184;-87
2022/05/10 07:34:11;;;;;;;4.80;3.10;;;;;;;20.33;38.52;97602.38;5091848;28;20195;-88
2022/05/10 07:37:34;;;;;;;6.67;3.77;;;;;;;20.62;35.69;97590.47;5111230;28;20196;-89
2022/05/10 07:40:56;;;;;;;7.53;3.47;;;;;;;20.75;35.65;97598.25;5109551;28;20267;-85
2022/05/10 07:44:17;;;;;;;6.10;3.73;;;;;;;20.41;35.05;97604.41;5113019;28;20215;-88
2022/05/10 07:47:43;;;;;;;3.97;2.17;;;;;;;20.39;34.52;97556.34;5110488;28;20212;-87
2022/05/10 07:51:05;;;;;;;5.07;3.40;;;;;;;20.49;33.98;97571.31;5092134;28;20217;-86
2022/05/10 07:54:28;;;;;;;5.03;2.90;;;;;;;20.43;34.28;97595.44;5110795;28;20203;-87
2022/05/10 07:57:51;;;;;;;6.60;3.50;;;;;;;20.72;34.20;97598.47;5092167;28;20253;-85
2022/05/10 08:01:11;;;;;;;4.43;2.83;;;;;;;20.84;34.35;97592.25;5109968;28;20290;-89
2022/05/10 08:04:32;;;;;;;5.33;3.97;;;;;;;21.15;33.30;97593.34;5099108;28;20268;-85
2022/05/10 08:07:54;;;;;;;3.17;2.67;;;;;;;21.14;33.22;97583.78;5111488;28;20207;-90
2022/05/10 08:11:15;;;;;;;8.10;3.10;;;;;;;21.03;34.25;97595.16;5091623;28;20567;-88
2022/05/10 08:14:38;;;;;;;4.90;2.30;;;;;;;21.04;32.81;97579.22;5111031;28;20181;-91
2022/05/10 08:18:07;;;;;;;3.80;2.53;;;;;;;21.12;33.06;97583.06;5098941;28;20232;-87
2022/05/10 08:21:37;;;;;;;6.17;2.50;;;;;;;20.73;34.39;97532.53;5103133;28;20303;-89
2022/05/10 08:25:10;;;;;;;5.23;3.97;;;;;;;20.94;34.46;97585.31;5117295;28;20195;-88
2022/05/10 08:28:34;;;;;;;6.57;4.03;;;;;;;21.06;34.26;97581.75;5094418;28;20195;-89
2022/05/10 08:31:59;;;;;;;3.67;2.67;;;;;;;21.39;33.05;97578.22;5117212;28;20201;-86
2022/05/10 08:35:22;;;;;;;6.43;2.97;;;;;;;21.72;32.18;97580.78;5094830;28;20205;-95
2022/05/10 08:38:49;;;;;;;6.87;3.33;;;;;;;21.28;34.49;97580.88;5119333;28;20684;-92
2022/05/10 08:42:12;;;;;;;6.20;2.57;;;;;;;21.18;33.85;97562.34;5113404;28;20229;-88
2022/05/10 08:45:34;;;;;;;4.67;3.77;;;;;;;21.42;34.20;97567.44;5114263;28;20193;-90
2022/05/10 08:48:55;;;;;;;4.80;2.30;;;;;;;21.62;33.31;97585.94;5113619;28;20576;-87
2022/05/10 08:52:18;;;;;;;11.23;4.13;;;;;;;21.38;34.42;97573.91;5084942;28;20206;-91
2022/05/10 08:55:38;;;;;;;7.27;2.60;;;;;;;21.29;35.29;97577.31;5114769;28;20208;-86
2022/05/10 08:59:07;;;;;;;3.63;2.10;;;;;;;21.15;34.71;97582.81;5098963;28;20212;-88
2022/05/10 09:02:13;;;;;;;4.67;2.33;;;;;;;21.13;35.87;97576.81;5117808;28;20278;-89
2022/05/10 09:05:50;;;;;;;4.60;2.40;;;;;;;21.37;34.99;97567.78;5103703;28;20542;-87
2022/05/10 09:09:39;;;;;;;6.70;2.93;;;;;;;21.24;34.38;97500.41;5031724;28;21116;-95
2022/05/10 09:13:01;;;;;;;4.33;2.87;;;;;;;21.77;33.80;97574.16;5065612;28;20195;-90
2022/05/10 09:16:46;;;;;;;2.47;2.00;;;;;;;21.80;32.22;97567.78;5052958;28;20218;-94
2022/05/10 09:20:09;;;;;;;14.33;7.33;;;;;;;21.43;33.21;97561.22;5039926;28;20198;-94
2022/05/10 09:23:30;;;;;;;3.70;2.43;;;;;;;21.64;33.33;97564.72;5034514;28;20702;-91
2022/05/10 09:26:55;;;;;;;4.13;1.90;;;;;;;21.78;34.30;97549.44;5044825;28;20245;-90
2022/05/10 09:30:23;;;;;;;4.50;3.10;;;;;;;21.87;32.74;97558.44;5060145;28;20262;-92
2022/05/10 09:37:50;;;;;;;4.63;1.90;;;;;;;21.53;32.76;97539.25;5050475;28;20230;-86
2022/05/10 09:41:11;;;;;;;4.27;2.70;;;;;;;21.74;33.61;97548.03;5113931;28;20229;-87
2022/05/10 09:44:33;;;;;;;7.03;2.30;;;;;;;21.85;31.71;97539.25;5116633;28;20197;-87
2022/05/10 09:47:54;;;;;;;4.00;2.10;;;;;;;21.48;31.95;97545.84;5098682;28;20265;-88
2022/05/10 09:51:00;;;;;;;2.97;1.60;;;;;;;21.72;32.20;97533.31;5102415;28;20254;-90
2022/05/10 09:54:25;;;;;;;5.20;2.23;;;;;;;22.08;31.56;97525.00;5107428;28;20202;-86
2022/05/10 09:57:52;;;;;;;6.20;2.03;;;;;;;21.84;32.12;97521.78;5122736;28;20224;-86
2022/05/10 10:01:19;;;;;;;5.00;2.00;;;;;;;22.15;31.94;97523.53;5108035;28;20198;-87
2022/05/10 10:04:48;;;;;;;4.57;2.43;;;;;;;22.33;31.13;97527.22;5125465;28;20248;-89
2022/05/10 10:08:14;;;;;;;5.33;2.43;;;;;;;22.27;31.12;97522.47;5127510;28;20194;-88
2022/05/10 10:11:47;;;;;;;6.13;3.73;;;;;;;21.97;31.75;97511.84;5107749;28;20222;-92
2022/05/10 10:15:13;;;;;;;5.97;2.33;;;;;;;22.14;31.22;97471.72;5122174;28;20198;-87
2022/05/10 10:18:35;;;;;;;3.37;2.10;;;;;;;22.76;31.06;97510.34;5115025;28;20216;-86
2022/05/10 10:21:51;;;;;;;3.30;2.07;;;;;;;22.76;31.13;97495.34;5084422;28;20269;-86
2022/05/10 10:25:32;;;;;;;3.70;2.10;;;;;;;22.61;32.31;97505.44;5123258;28;20181;-87
2022/05/10 10:28:43;;;;;;;3.30;1.80;;;;;;;22.15;32.01;97507.69;5105167;28;20203;-88
2022/05/10 10:32:12;;;;;;;3.20;2.00;;;;;;;22.37;32.51;97494.34;5078474;28;20223;-91
2022/05/10 10:35:19;;;;;;;2.70;1.83;;;;;;;22.58;31.05;97481.97;5079442;28;20205;-85
2022/05/10 10:38:41;;;;;;;5.10;2.60;;;;;;;22.59;32.13;97486.25;5085725;28;20198;-88
2022/05/10 10:42:08;;;;;;;2.83;2.13;;;;;;;23.04;31.10;97485.84;5077653;28;20293;-87
2022/05/10 10:45:32;;;;;;;3.87;2.00;;;;;;;23.27;29.67;97487.25;5058228;28;20198;-87
2022/05/10 10:48:45;;;;;;;3.13;1.80;;;;;;;23.20;30.63;97487.00;5090362;28;20251;-85
2022/05/10 10:52:07;;;;;;;4.73;2.40;;;;;;;22.73;31.78;97473.66;5086412;28;20204;-89
2022/05/10 10:55:28;;;;;;;4.90;2.10;;;;;;;22.53;31.34;97483.28;5050557;28;20268;-86
2022/05/10 10:58:30;;;;;;;4.07;1.80;;;;;;;22.75;31.17;97475.19;5082768;28;20188;-93
2022/05/10 11:01:31;;;;;;;3.83;1.77;;;;;;;23.17;31.30;97474.03;5086251;28;20221;-92
2022/05/10 11:04:33;;;;;;;7.53;3.13;;;;;;;23.58;29.47;97470.31;5121854;28;20192;-85
2022/05/10 11:07:56;;;;;;;3.63;1.80;;;;;;;23.70;29.41;97461.25;5094957;28;20204;-91
2022/05/10 11:11:24;;;;;;;4.73;2.40;;;;;;;23.95;29.27;97463.31;5119103;28;20181;-86
2022/05/10 11:14:54;;;;;;;13.53;10.90;;;;;;;23.82;29.01;97457.50;5135467;27;20192;-86
2022/05/10 11:17:35;;;;;;;8.23;5.20;;;;;;;23.90;29.14;97454.16;5113960;28;20193;-86
2022/05/10 11:20:44;;;;;;;7.27;5.43;;;;;;;23.70;29.21;97447.22;5128288;28;20226;-86
2022/05/10 11:24:03;;;;;;;3.53;1.70;;;;;;;23.78;28.91;97450.00;5132756;28;20237;-88
2022/05/10 11:27:25;;;;;;;3.23;1.93;;;;;;;23.82;29.83;97448.75;5096996;27;20177;-92
2022/05/10 11:30:19;;;;;;;2.83;1.83;;;;;;;23.97;29.74;97448.13;5113617;28;20190;-87
2022/05/10 11:33:39;;;;;;;3.73;1.87;;;;;;;23.90;29.23;97438.28;5110847;28;20187;-87
2022/05/10 11:37:01;;;;;;;4.70;2.27;;;;;;;24.08;29.84;97441.88;5100948;28;20190;-85
2022/05/10 11:40:40;;;;;;;4.13;2.00;;;;;;;23.96;29.24;97432.41;5131823;28;20205;-85
2022/05/10 11:43:48;;;;;;;13.50;11.93;;;;;;;24.13;28.00;97410.53;5134444;27;20181;-93
2022/05/10 11:47:26;;;;;;;3.20;2.17;;;;;;;24.13;28.71;97421.94;5114285;28;20200;-86
2022/05/10 11:50:34;;;;;;;2.70;1.70;;;;;;;24.22;30.02;97429.03;5109437;28;20191;-88
2022/05/10 11:54:01;;;;;;;6.20;2.80;;;;;;;24.05;30.84;97429.75;5134512;27;20203;-88
2022/05/10 11:57:23;;;;;;;3.43;2.07;;;;;;;23.87;29.94;97410.28;5117393;28;20201;-87
2022/05/10 12:00:26;;;;;;;3.27;1.70;;;;;;;23.63;30.24;97417.88;5130106;28;20304;-90
2022/05/10 12:03:36;;;;;;;2.57;1.57;;;;;;;23.04;31.15;97382.81;5126087;28;20281;-93
2022/05/10 12:06:46;;;;;;;3.03;1.97;;;;;;;23.42;30.73;97398.66;5127423;28;20211;-91
2022/05/10 12:10:25;;;;;;;7.90;2.10;;;;;;;23.86;29.87;97405.16;5113363;28;20192;-87
2022/05/10 12:21:22;;;;;;;4.17;1.80;;;;;;;23.18;32.06;97392.97;5115082;28;20461;-89
2022/05/10 12:24:19;;;;;;;2.47;2.17;;;;;;;23.83;31.16;97382.44;5095378;28;20217;-95
2022/05/10 12:27:19;;;;;;;2.77;1.80;;;;;;;23.75;30.74;97387.63;5100692;28;20177;-94
2022/05/10 12:30:49;;;;;;;4.80;1.93;;;;;;;23.29;32.07;97376.94;5100064;28;20193;-87
2022/05/10 12:34:16;;;;;;;3.87;1.90;;;;;;;23.95;31.86;97377.81;5115205;28;20675;-85
2022/05/10 12:37:22;;;;;;;3.97;1.60;;;;;;;23.85;31.13;97372.56;5111691;28;20275;-89
2022/05/10 12:40:09;;;;;;;3.67;1.93;;;;;;;24.25;30.91;97367.00;5113783;28;20725;-85
2022/05/10 12:43:28;;;;;;;6.40;2.40;;;;;;;24.37;31.36;97365.00;5093365;28;20260;-91
2022/05/10 12:47:08;;;;;;;2.83;2.10;;;;;;;24.78;30.56;97362.69;5112247;28;20186;-90
2022/05/10 12:50:40;;;;;;;1.87;1.67;;;;;;;24.68;31.28;97366.34;5079975;28;20202;-93
2022/05/10 12:53:55;;;;;;;2.47;2.23;;;;;;;24.12;31.55;97356.75;5099930;28;20194;-89
2022/05/10 12:56:44;;;;;;;5.80;2.17;;;;;;;24.11;32.33;97347.13;5083319;28;20195;-89
2022/05/10 12:59:41;;;;;;;7.47;2.60;;;;;;;24.21;32.49;97353.22;5114644;28;20189;-94
2022/05/10 13:03:05;;;;;;;6.97;1.70;;;;;;;23.59;32.75;97341.59;5118567;28;20253;-90
2022/05/10 13:06:15;;;;;;;3.03;2.20;;;;;;;23.61;33.60;97329.06;5092285;28;20184;-93
2022/05/10 13:09:23;;;;;;;4.60;2.10;;;;;;;23.84;33.41;97340.97;5104020;28;20230;-91
2022/05/10 13:13:00;;;;;;;5.37;2.23;;;;;;;24.21;32.44;97332.03;5124187;28;20247;-87
2022/05/10 13:16:25;;;;;;;4.07;1.70;;;;;;;23.80;33.07;97329.00;5129679;28;20190;-88
2022/05/10 13:19:46;;;;;;;3.03;2.10;;;;;;;24.13;33.46;97325.84;5114674;28;20184;-85
2022/05/10 13:23:09;;;;;;;5.47;1.80;;;;;;;23.84;32.61;97320.66;5130632;28;20209;-90
2022/05/10 13:26:30;;;;;;;4.27;2.03;;;;;;;24.21;32.20;97318.81;5111258;28;20327;-93
2022/05/10 13:30:04;;;;;;;5.80;1.90;;;;;;;24.35;32.67;97314.00;5124253;28;20200;-87
2022/05/10 13:33:25;;;;;;;3.93;2.13;;;;;;;24.18;32.14;97321.75;5135304;27;20242;-88
2022/05/10 13:36:47;;;;;;;3.77;1.97;;;;;;;23.97;32.12;97315.84;5117219;28;20190;-89
2022/05/10 13:40:09;;;;;;;3.87;2.27;;;;;;;24.25;32.34;97304.28;5115844;28;20209;-91
2022/05/10 13:43:38;;;;;;;5.03;2.10;;;;;;;23.93;33.52;97308.31;5133003;27;20222;-88
2022/05/10 13:47:00;;;;;;;6.50;2.13;;;;;;;23.34;33.87;97308.66;5134020;27;20959;-87
2022/05/10 13:50:24;;;;;;;9.97;2.57;;;;;;;23.29;33.57;97310.84;5120937;28;20200;-87